sensor_id;sensor_type;location;lat;lon;timestamp;temperature;humidity
15959;DHT22;8078;47.822;9.402;2022-10-16T00:00:37;12.80;99.90
15959;DHT22;8078;47.822;9.402;2022-10-16T00:03:04;12.90;99.90
15959;DHT22;8078;47.822;9.402;2022-10-16T00:05:30;13.10;99.90
15959;DHT22;8078;47.822;9.402;2022-10-16T00:07:55;13.30;99.90
15959;DHT22;8078;47.822;9.402;2022-10-16T00:10:21;13.50;99.90
15959;DHT22;8078;47.822;9.402;2022-10-16T00:12:47;13.50;99.90
15959;DHT22;8078;47.822;9.402;2022-10-16T00:15:12;13.60;99.90
15959;DHT22;8078;47.822;9.402;2022-10-16T00:17:38;13.70;99.90
15959;DHT22;8078;47.822;9.402;2022-10-16T00:20:04;13.80;99.90
15959;DHT22;8078;47.822;9.402;2022-10-16T00:22:30;14.00;99.90
15959;DHT22;8078;47.822;9.402;2022-10-16T00:24:55;14.00;99.90
15959;DHT22;8078;47.822;9.402;2022-10-16T00:27:21;14.30;99.90
15959;DHT22;8078;47.822;9.402;2022-10-16T00:29:50;14.20;99.90
15959;DHT22;8078;47.822;9.402;2022-10-16T00:32:17;14.20;99.90
15959;DHT22;8078;47.822;9.402;2022-10-16T00:34:43;14.20;99.90
15959;DHT22;8078;47.822;9.402;2022-10-16T00:37:08;14.30;99.90
15959;DHT22;8078;47.822;9.402;2022-10-16T00:39:34;14.20;99.90
15959;DHT22;8078;47.822;9.402;2022-10-16T00:42:00;14.30;99.90
15959;DHT22;8078;47.822;9.402;2022-10-16T00:47:42;14.30;99.90
15959;DHT22;8078;47.822;9.402;2022-10-16T00:50:36;14.30;99.90
15959;DHT22;8078;47.822;9.402;2022-10-16T00:53:03;14.30;99.90
15959;DHT22;8078;47.822;9.402;2022-10-16T00:55:28;14.30;99.90
15959;DHT22;8078;47.822;9.402;2022-10-16T00:57:56;14.10;99.90
15959;DHT22;8078;47.822;9.402;2022-10-16T01:00:24;14.00;99.90
15959;DHT22;8078;47.822;9.402;2022-10-16T01:02:59;13.80;99.90
15959;DHT22;8078;47.822;9.402;2022-10-16T01:05:33;13.70;99.90
15959;DHT22;8078;47.822;9.402;2022-10-16T01:08:13;13.60;99.90
15959;DHT22;8078;47.822;9.402;2022-10-16T01:10:45;13.70;99.90
15959;DHT22;8078;47.822;9.402;2022-10-16T01:13:23;13.80;99.90
15959;DHT22;8078;47.822;9.402;2022-10-16T01:16:05;13.70;99.90
15959;DHT22;8078;47.822;9.402;2022-10-16T01:18:42;13.70;99.90
15959;DHT22;8078;47.822;9.402;2022-10-16T01:21:11;13.80;99.90
15959;DHT22;8078;47.822;9.402;2022-10-16T01:23:58;13.90;99.90
15959;DHT22;8078;47.822;9.402;2022-10-16T01:29:15;13.90;99.90
15959;DHT22;8078;47.822;9.402;2022-10-16T01:31:48;13.90;99.90
15959;DHT22;8078;47.822;9.402;2022-10-16T01:34:19;14.00;99.90
15959;DHT22;8078;47.822;9.402;2022-10-16T01:36:53;14.10;99.90
15959;DHT22;8078;47.822;9.402;2022-10-16T01:39:24;14.00;99.90
15959;DHT22;8078;47.822;9.402;2022-10-16T01:42:16;14.00;99.90
15959;DHT22;8078;47.822;9.402;2022-10-16T01:44:43;14.00;99.90
15959;DHT22;8078;47.822;9.402;2022-10-16T01:47:11;14.00;99.90
15959;DHT22;8078;47.822;9.402;2022-10-16T01:49:39;13.90;99.90
15959;DHT22;8078;47.822;9.402;2022-10-16T01:52:09;13.90;99.90
15959;DHT22;8078;47.822;9.402;2022-10-16T01:54:39;14.00;99.90
15959;DHT22;8078;47.822;9.402;2022-10-16T01:57:07;14.00;99.90
15959;DHT22;8078;47.822;9.402;2022-10-16T01:59:36;14.20;99.90
15959;DHT22;8078;47.822;9.402;2022-10-16T02:02:06;14.30;99.90
15959;DHT22;8078;47.822;9.402;2022-10-16T02:04:36;14.30;99.90
15959;DHT22;8078;47.822;9.402;2022-10-16T02:07:03;14.30;99.90
15959;DHT22;8078;47.822;9.402;2022-10-16T02:09:30;14.30;99.90
15959;DHT22;8078;47.822;9.402;2022-10-16T02:12:00;14.30;99.90
15959;DHT22;8078;47.822;9.402;2022-10-16T02:14:28;14.30;99.90
15959;DHT22;8078;47.822;9.402;2022-10-16T02:16:54;14.40;99.90
15959;DHT22;8078;47.822;9.402;2022-10-16T02:19:20;14.50;99.90
15959;DHT22;8078;47.822;9.402;2022-10-16T02:21:51;14.60;99.90
15959;DHT22;8078;47.822;9.402;2022-10-16T02:24:35;14.60;99.90
15959;DHT22;8078;47.822;9.402;2022-10-16T02:29:39;14.50;99.90
15959;DHT22;8078;47.822;9.402;2022-10-16T02:32:07;14.60;99.90
15959;DHT22;8078;47.822;9.402;2022-10-16T02:34:34;14.50;99.90
15959;DHT22;8078;47.822;9.402;2022-10-16T02:37:01;14.50;99.90
15959;DHT22;8078;47.822;9.402;2022-10-16T02:39:29;14.70;99.90
15959;DHT22;8078;47.822;9.402;2022-10-16T02:41:55;14.70;99.90
15959;DHT22;8078;47.822;9.402;2022-10-16T02:44:21;14.50;99.90
15959;DHT22;8078;47.822;9.402;2022-10-16T02:46:46;14.40;99.90
15959;DHT22;8078;47.822;9.402;2022-10-16T02:49:12;14.40;99.90
15959;DHT22;8078;47.822;9.402;2022-10-16T02:51:38;14.30;99.90
15959;DHT22;8078;47.822;9.402;2022-10-16T02:54:03;14.30;99.90
15959;DHT22;8078;47.822;9.402;2022-10-16T02:56:29;14.30;99.90
15959;DHT22;8078;47.822;9.402;2022-10-16T02:58:56;14.40;99.90
15959;DHT22;8078;47.822;9.402;2022-10-16T03:01:22;14.40;99.90
15959;DHT22;8078;47.822;9.402;2022-10-16T03:03:48;14.40;99.90
15959;DHT22;8078;47.822;9.402;2022-10-16T03:06:13;14.30;99.90
15959;DHT22;8078;47.822;9.402;2022-10-16T03:08:39;14.20;99.90
15959;DHT22;8078;47.822;9.402;2022-10-16T03:11:05;14.20;99.90
15959;DHT22;8078;47.822;9.402;2022-10-16T03:13:30;14.30;99.90
15959;DHT22;8078;47.822;9.402;2022-10-16T03:15:56;14.40;99.90
15959;DHT22;8078;47.822;9.402;2022-10-16T03:18:21;14.40;99.90
15959;DHT22;8078;47.822;9.402;2022-10-16T03:20:47;14.40;99.90
15959;DHT22;8078;47.822;9.402;2022-10-16T03:23:13;14.30;99.90
15959;DHT22;8078;47.822;9.402;2022-10-16T03:25:38;14.30;99.90
15959;DHT22;8078;47.822;9.402;2022-10-16T03:28:04;14.20;99.90
15959;DHT22;8078;47.822;9.402;2022-10-16T03:30:29;14.30;99.90
15959;DHT22;8078;47.822;9.402;2022-10-16T03:32:55;14.20;99.90
15959;DHT22;8078;47.822;9.402;2022-10-16T03:35:22;14.40;99.90
15959;DHT22;8078;47.822;9.402;2022-10-16T03:37:47;14.70;99.90
15959;DHT22;8078;47.822;9.402;2022-10-16T03:40:13;14.80;99.90
15959;DHT22;8078;47.822;9.402;2022-10-16T03:42:39;15.00;99.90
15959;DHT22;8078;47.822;9.402;2022-10-16T03:45:05;15.00;99.90
15959;DHT22;8078;47.822;9.402;2022-10-16T03:47:31;15.10;99.90
15959;DHT22;8078;47.822;9.402;2022-10-16T03:49:59;15.20;99.90
15959;DHT22;8078;47.822;9.402;2022-10-16T03:52:24;15.30;99.90
15959;DHT22;8078;47.822;9.402;2022-10-16T03:54:50;15.30;99.90
15959;DHT22;8078;47.822;9.402;2022-10-16T03:57:16;15.30;99.90
15959;DHT22;8078;47.822;9.402;2022-10-16T03:59:42;15.20;99.90
15959;DHT22;8078;47.822;9.402;2022-10-16T04:02:07;15.40;99.90
15959;DHT22;8078;47.822;9.402;2022-10-16T04:04:34;15.30;99.90
15959;DHT22;8078;47.822;9.402;2022-10-16T04:06:59;15.30;99.90
15959;DHT22;8078;47.822;9.402;2022-10-16T04:09:25;15.30;99.90
15959;DHT22;8078;47.822;9.402;2022-10-16T04:11:50;15.30;99.90
15959;DHT22;8078;47.822;9.402;2022-10-16T04:14:16;15.10;99.90
15959;DHT22;8078;47.822;9.402;2022-10-16T04:16:42;15.00;99.90
15959;DHT22;8078;47.822;9.402;2022-10-16T04:19:08;15.00;99.90
15959;DHT22;8078;47.822;9.402;2022-10-16T04:21:33;15.10;99.90
15959;DHT22;8078;47.822;9.402;2022-10-16T04:23:59;15.10;99.90
15959;DHT22;8078;47.822;9.402;2022-10-16T04:26:25;15.20;99.90
15959;DHT22;8078;47.822;9.402;2022-10-16T04:28:50;15.00;99.90
15959;DHT22;8078;47.822;9.402;2022-10-16T04:31:16;14.90;99.90
15959;DHT22;8078;47.822;9.402;2022-10-16T04:33:44;14.90;99.90
15959;DHT22;8078;47.822;9.402;2022-10-16T04:36:10;14.90;99.90
15959;DHT22;8078;47.822;9.402;2022-10-16T04:38:35;15.00;99.90
15959;DHT22;8078;47.822;9.402;2022-10-16T04:41:03;15.00;99.90
15959;DHT22;8078;47.822;9.402;2022-10-16T04:43:29;15.10;99.90
15959;DHT22;8078;47.822;9.402;2022-10-16T04:45:55;15.10;99.90
15959;DHT22;8078;47.822;9.402;2022-10-16T04:48:21;15.10;99.90
15959;DHT22;8078;47.822;9.402;2022-10-16T04:50:47;15.10;99.90
15959;DHT22;8078;47.822;9.402;2022-10-16T04:53:13;15.10;99.90
15959;DHT22;8078;47.822;9.402;2022-10-16T04:55:39;15.00;99.90
15959;DHT22;8078;47.822;9.402;2022-10-16T04:58:06;14.90;99.90
15959;DHT22;8078;47.822;9.402;2022-10-16T05:00:32;14.90;99.90
15959;DHT22;8078;47.822;9.402;2022-10-16T05:02:58;14.90;99.90
15959;DHT22;8078;47.822;9.402;2022-10-16T05:05:25;14.80;99.90
15959;DHT22;8078;47.822;9.402;2022-10-16T05:07:51;14.90;99.90
15959;DHT22;8078;47.822;9.402;2022-10-16T05:10:16;14.90;99.90
15959;DHT22;8078;47.822;9.402;2022-10-16T05:12:42;14.90;99.90
15959;DHT22;8078;47.822;9.402;2022-10-16T05:15:08;14.90;99.90
15959;DHT22;8078;47.822;9.402;2022-10-16T05:17:34;15.00;99.90
15959;DHT22;8078;47.822;9.402;2022-10-16T05:19:59;15.00;99.90
15959;DHT22;8078;47.822;9.402;2022-10-16T05:22:25;15.00;99.90
15959;DHT22;8078;47.822;9.402;2022-10-16T05:24:50;15.00;99.90
15959;DHT22;8078;47.822;9.402;2022-10-16T05:27:16;15.00;99.90
15959;DHT22;8078;47.822;9.402;2022-10-16T05:29:48;15.10;99.90
15959;DHT22;8078;47.822;9.402;2022-10-16T05:32:14;15.30;99.90
15959;DHT22;8078;47.822;9.402;2022-10-16T05:34:40;15.30;99.90
15959;DHT22;8078;47.822;9.402;2022-10-16T05:37:06;15.20;99.90
15959;DHT22;8078;47.822;9.402;2022-10-16T05:39:31;15.10;99.90
15959;DHT22;8078;47.822;9.402;2022-10-16T05:41:57;15.10;99.90
15959;DHT22;8078;47.822;9.402;2022-10-16T05:44:23;15.00;99.90
15959;DHT22;8078;47.822;9.402;2022-10-16T05:46:48;14.90;99.90
15959;DHT22;8078;47.822;9.402;2022-10-16T05:49:14;14.80;99.90
15959;DHT22;8078;47.822;9.402;2022-10-16T05:51:40;14.70;99.90
15959;DHT22;8078;47.822;9.402;2022-10-16T05:54:06;14.70;99.90
15959;DHT22;8078;47.822;9.402;2022-10-16T05:56:32;14.60;99.90
15959;DHT22;8078;47.822;9.402;2022-10-16T05:58:57;14.60;99.90
15959;DHT22;8078;47.822;9.402;2022-10-16T06:01:23;14.70;99.90
15959;DHT22;8078;47.822;9.402;2022-10-16T06:03:50;14.60;99.90
15959;DHT22;8078;47.822;9.402;2022-10-16T06:06:19;14.60;99.90
15959;DHT22;8078;47.822;9.402;2022-10-16T06:08:46;14.60;99.90
15959;DHT22;8078;47.822;9.402;2022-10-16T06:11:18;14.50;99.90
15959;DHT22;8078;47.822;9.402;2022-10-16T06:13:44;14.40;99.90
15959;DHT22;8078;47.822;9.402;2022-10-16T06:16:12;14.30;99.90
15959;DHT22;8078;47.822;9.402;2022-10-16T06:18:38;14.20;99.90
15959;DHT22;8078;47.822;9.402;2022-10-16T06:21:16;14.20;99.90
15959;DHT22;8078;47.822;9.402;2022-10-16T06:23:43;14.10;99.90
15959;DHT22;8078;47.822;9.402;2022-10-16T06:26:12;14.20;99.90
15959;DHT22;8078;47.822;9.402;2022-10-16T06:28:39;14.30;99.90
15959;DHT22;8078;47.822;9.402;2022-10-16T06:31:06;14.30;99.90
15959;DHT22;8078;47.822;9.402;2022-10-16T06:33:32;14.30;99.90
15959;DHT22;8078;47.822;9.402;2022-10-16T06:36:09;14.40;99.90
15959;DHT22;8078;47.822;9.402;2022-10-16T06:38:36;14.50;99.90
15959;DHT22;8078;47.822;9.402;2022-10-16T06:41:02;14.70;99.90
15959;DHT22;8078;47.822;9.402;2022-10-16T06:43:32;14.80;99.90
15959;DHT22;8078;47.822;9.402;2022-10-16T06:45:59;15.00;99.90
15959;DHT22;8078;47.822;9.402;2022-10-16T06:48:26;15.10;99.90
15959;DHT22;8078;47.822;9.402;2022-10-16T06:51:06;15.00;99.90
15959;DHT22;8078;47.822;9.402;2022-10-16T06:53:34;15.00;99.90
15959;DHT22;8078;47.822;9.402;2022-10-16T06:56:11;15.10;99.90
15959;DHT22;8078;47.822;9.402;2022-10-16T06:58:37;15.10;99.90
15959;DHT22;8078;47.822;9.402;2022-10-16T07:01:04;15.20;99.90
15959;DHT22;8078;47.822;9.402;2022-10-16T07:03:29;15.20;99.90
15959;DHT22;8078;47.822;9.402;2022-10-16T07:05:55;15.20;99.90
15959;DHT22;8078;47.822;9.402;2022-10-16T07:08:21;15.10;99.90
15959;DHT22;8078;47.822;9.402;2022-10-16T07:10:47;15.00;99.90
15959;DHT22;8078;47.822;9.402;2022-10-16T07:13:13;15.00;99.90
15959;DHT22;8078;47.822;9.402;2022-10-16T07:15:39;15.00;99.90
15959;DHT22;8078;47.822;9.402;2022-10-16T07:18:05;15.00;99.90
15959;DHT22;8078;47.822;9.402;2022-10-16T07:20:31;14.90;99.90
15959;DHT22;8078;47.822;9.402;2022-10-16T07:22:56;15.00;99.90
15959;DHT22;8078;47.822;9.402;2022-10-16T07:25:22;15.00;99.90
15959;DHT22;8078;47.822;9.402;2022-10-16T07:27:48;15.10;99.90
15959;DHT22;8078;47.822;9.402;2022-10-16T07:30:13;15.10;99.90
15959;DHT22;8078;47.822;9.402;2022-10-16T07:32:39;15.00;99.90
15959;DHT22;8078;47.822;9.402;2022-10-16T07:35:05;15.00;99.90
15959;DHT22;8078;47.822;9.402;2022-10-16T07:37:30;15.00;99.90
15959;DHT22;8078;47.822;9.402;2022-10-16T07:39:56;14.90;99.90
15959;DHT22;8078;47.822;9.402;2022-10-16T07:42:21;14.90;99.90
15959;DHT22;8078;47.822;9.402;2022-10-16T07:44:47;15.00;99.90
15959;DHT22;8078;47.822;9.402;2022-10-16T07:47:13;15.10;99.90
15959;DHT22;8078;47.822;9.402;2022-10-16T07:49:38;15.20;99.90
15959;DHT22;8078;47.822;9.402;2022-10-16T07:52:04;15.20;99.90
15959;DHT22;8078;47.822;9.402;2022-10-16T07:54:29;15.20;99.90
15959;DHT22;8078;47.822;9.402;2022-10-16T07:56:55;15.30;99.90
15959;DHT22;8078;47.822;9.402;2022-10-16T07:59:20;15.30;99.90
15959;DHT22;8078;47.822;9.402;2022-10-16T08:01:46;15.50;99.90
15959;DHT22;8078;47.822;9.402;2022-10-16T08:04:11;15.60;99.90
15959;DHT22;8078;47.822;9.402;2022-10-16T08:06:39;15.50;99.90
15959;DHT22;8078;47.822;9.402;2022-10-16T08:09:06;15.50;99.90
15959;DHT22;8078;47.822;9.402;2022-10-16T08:11:31;15.40;99.90
15959;DHT22;8078;47.822;9.402;2022-10-16T08:13:57;15.40;99.90
15959;DHT22;8078;47.822;9.402;2022-10-16T08:16:23;15.50;99.90
15959;DHT22;8078;47.822;9.402;2022-10-16T08:18:48;15.70;99.90
15959;DHT22;8078;47.822;9.402;2022-10-16T08:21:18;15.80;99.90
15959;DHT22;8078;47.822;9.402;2022-10-16T08:23:45;16.20;99.90
15959;DHT22;8078;47.822;9.402;2022-10-16T08:26:12;16.40;99.90
15959;DHT22;8078;47.822;9.402;2022-10-16T08:28:39;16.60;99.90
15959;DHT22;8078;47.822;9.402;2022-10-16T08:31:13;16.90;99.90
15959;DHT22;8078;47.822;9.402;2022-10-16T08:33:43;17.00;99.90
15959;DHT22;8078;47.822;9.402;2022-10-16T08:36:32;17.10;99.90
15959;DHT22;8078;47.822;9.402;2022-10-16T08:38:58;17.20;99.90
15959;DHT22;8078;47.822;9.402;2022-10-16T08:46:55;16.70;99.90
15959;DHT22;8078;47.822;9.402;2022-10-16T08:49:22;16.70;99.90
15959;DHT22;8078;47.822;9.402;2022-10-16T08:51:50;16.80;99.90
15959;DHT22;8078;47.822;9.402;2022-10-16T08:54:29;17.20;99.90
15959;DHT22;8078;47.822;9.402;2022-10-16T08:56:57;17.50;99.90
15959;DHT22;8078;47.822;9.402;2022-10-16T08:59:26;17.50;99.90
15959;DHT22;8078;47.822;9.402;2022-10-16T09:01:52;17.40;99.90
15959;DHT22;8078;47.822;9.402;2022-10-16T09:04:43;17.40;99.90
15959;DHT22;8078;47.822;9.402;2022-10-16T09:07:40;17.10;99.90
15959;DHT22;8078;47.822;9.402;2022-10-16T09:13:13;17.40;99.90
15959;DHT22;8078;47.822;9.402;2022-10-16T09:23:34;17.60;99.90
15959;DHT22;8078;47.822;9.402;2022-10-16T09:26:01;17.90;99.90
15959;DHT22;8078;47.822;9.402;2022-10-16T09:28:27;18.00;99.90
15959;DHT22;8078;47.822;9.402;2022-10-16T09:30:53;17.90;99.90
15959;DHT22;8078;47.822;9.402;2022-10-16T09:33:23;18.00;99.90
15959;DHT22;8078;47.822;9.402;2022-10-16T09:35:51;17.90;99.90
15959;DHT22;8078;47.822;9.402;2022-10-16T09:38:34;18.00;99.90
15959;DHT22;8078;47.822;9.402;2022-10-16T09:41:04;18.10;99.90
15959;DHT22;8078;47.822;9.402;2022-10-16T09:43:41;18.40;99.90
15959;DHT22;8078;47.822;9.402;2022-10-16T09:48:57;18.70;99.90
15959;DHT22;8078;47.822;9.402;2022-10-16T09:54:14;18.80;99.90
15959;DHT22;8078;47.822;9.402;2022-10-16T09:56:40;19.00;99.90
15959;DHT22;8078;47.822;9.402;2022-10-16T09:59:12;19.20;99.90
15959;DHT22;8078;47.822;9.402;2022-10-16T10:04:15;18.80;99.90
15959;DHT22;8078;47.822;9.402;2022-10-16T10:06:46;18.90;99.90
15959;DHT22;8078;47.822;9.402;2022-10-16T10:09:19;19.20;99.90
15959;DHT22;8078;47.822;9.402;2022-10-16T10:11:47;19.30;99.90
15959;DHT22;8078;47.822;9.402;2022-10-16T10:14:31;19.40;99.90
15959;DHT22;8078;47.822;9.402;2022-10-16T10:22:49;19.10;99.90
15959;DHT22;8078;47.822;9.402;2022-10-16T10:25:42;19.00;99.90
15959;DHT22;8078;47.822;9.402;2022-10-16T10:28:29;19.10;99.90
15959;DHT22;8078;47.822;9.402;2022-10-16T10:36:39;18.70;99.90
15959;DHT22;8078;47.822;9.402;2022-10-16T10:39:09;19.10;99.90
15959;DHT22;8078;47.822;9.402;2022-10-16T10:41:52;18.80;99.90
15959;DHT22;8078;47.822;9.402;2022-10-16T10:44:49;19.00;99.90
15959;DHT22;8078;47.822;9.402;2022-10-16T10:55:45;19.60;99.90
15959;DHT22;8078;47.822;9.402;2022-10-16T10:58:42;19.70;99.90
15959;DHT22;8078;47.822;9.402;2022-10-16T11:01:13;20.00;99.90
15959;DHT22;8078;47.822;9.402;2022-10-16T11:09:10;20.30;99.90
15959;DHT22;8078;47.822;9.402;2022-10-16T11:14:16;21.10;99.90
15959;DHT22;8078;47.822;9.402;2022-10-16T11:22:27;20.00;99.90
15959;DHT22;8078;47.822;9.402;2022-10-16T11:27:47;20.80;99.90
15959;DHT22;8078;47.822;9.402;2022-10-16T11:30:20;21.10;99.90
15959;DHT22;8078;47.822;9.402;2022-10-16T11:38:45;21.90;99.90
15959;DHT22;8078;47.822;9.402;2022-10-16T11:43:51;22.50;99.90
15959;DHT22;8078;47.822;9.402;2022-10-16T11:46:20;22.80;99.90
15959;DHT22;8078;47.822;9.402;2022-10-16T11:49:03;23.10;99.90
15959;DHT22;8078;47.822;9.402;2022-10-16T11:54:55;21.50;99.90
15959;DHT22;8078;47.822;9.402;2022-10-16T11:57:22;20.90;99.90
15959;DHT22;8078;47.822;9.402;2022-10-16T12:06:10;22.90;99.90
15959;DHT22;8078;47.822;9.402;2022-10-16T12:08:25;22.40;99.90
15959;DHT22;8078;47.822;9.402;2022-10-16T12:10:51;21.40;99.90
15959;DHT22;8078;47.822;9.402;2022-10-16T12:13:39;21.90;99.90
15959;DHT22;8078;47.822;9.402;2022-10-16T12:18:41;21.10;99.90
15959;DHT22;8078;47.822;9.402;2022-10-16T12:21:08;20.50;99.90
15959;DHT22;8078;47.822;9.402;2022-10-16T12:23:46;20.00;99.90
15959;DHT22;8078;47.822;9.402;2022-10-16T12:26:12;19.80;99.90
15959;DHT22;8078;47.822;9.402;2022-10-16T12:28:38;19.70;99.90
15959;DHT22;8078;47.822;9.402;2022-10-16T12:31:07;19.60;99.90
15959;DHT22;8078;47.822;9.402;2022-10-16T12:33:43;19.60;99.90
15959;DHT22;8078;47.822;9.402;2022-10-16T12:36:28;19.70;99.90
15959;DHT22;8078;47.822;9.402;2022-10-16T12:38:55;19.90;99.90
15959;DHT22;8078;47.822;9.402;2022-10-16T12:41:29;19.90;99.90
15959;DHT22;8078;47.822;9.402;2022-10-16T12:43:56;19.90;99.90
15959;DHT22;8078;47.822;9.402;2022-10-16T12:49:22;20.00;99.90
15959;DHT22;8078;47.822;9.402;2022-10-16T12:51:49;20.40;99.90
15959;DHT22;8078;47.822;9.402;2022-10-16T12:54:35;21.10;99.90
15959;DHT22;8078;47.822;9.402;2022-10-16T12:57:17;22.10;99.90
15959;DHT22;8078;47.822;9.402;2022-10-16T12:59:51;22.00;99.90
15959;DHT22;8078;47.822;9.402;2022-10-16T13:08:22;22.70;99.90
15959;DHT22;8078;47.822;9.402;2022-10-16T13:11:05;23.10;99.90
15959;DHT22;8078;47.822;9.402;2022-10-16T13:16:59;23.80;99.90
15959;DHT22;8078;47.822;9.402;2022-10-16T13:19:44;24.30;99.90
15959;DHT22;8078;47.822;9.402;2022-10-16T13:22:39;23.70;99.90
15959;DHT22;8078;47.822;9.402;2022-10-16T13:28:10;22.70;99.90
15959;DHT22;8078;47.822;9.402;2022-10-16T13:30:43;23.00;99.90
15959;DHT22;8078;47.822;9.402;2022-10-16T13:35:36;23.30;99.90
15959;DHT22;8078;47.822;9.402;2022-10-16T13:38:14;23.00;99.90
15959;DHT22;8078;47.822;9.402;2022-10-16T13:43:34;23.60;99.90
15959;DHT22;8078;47.822;9.402;2022-10-16T13:46:05;23.80;99.90
15959;DHT22;8078;47.822;9.402;2022-10-16T13:48:32;23.80;99.90
15959;DHT22;8078;47.822;9.402;2022-10-16T13:51:05;24.00;99.90
15959;DHT22;8078;47.822;9.402;2022-10-16T13:53:33;24.20;99.90
15959;DHT22;8078;47.822;9.402;2022-10-16T13:55:59;24.40;99.90
15959;DHT22;8078;47.822;9.402;2022-10-16T13:58:25;24.70;99.90
15959;DHT22;8078;47.822;9.402;2022-10-16T14:03:21;24.90;99.90
15959;DHT22;8078;47.822;9.402;2022-10-16T14:05:55;25.10;99.90
15959;DHT22;8078;47.822;9.402;2022-10-16T14:08:23;25.40;99.90
15959;DHT22;8078;47.822;9.402;2022-10-16T14:10:51;25.80;99.90
15959;DHT22;8078;47.822;9.402;2022-10-16T14:13:24;26.20;99.90
15959;DHT22;8078;47.822;9.402;2022-10-16T14:15:51;26.40;99.90
15959;DHT22;8078;47.822;9.402;2022-10-16T14:18:22;26.70;99.90
15959;DHT22;8078;47.822;9.402;2022-10-16T14:20:49;26.90;99.90
15959;DHT22;8078;47.822;9.402;2022-10-16T14:23:30;27.00;99.90
15959;DHT22;8078;47.822;9.402;2022-10-16T14:28:34;27.40;99.90
15959;DHT22;8078;47.822;9.402;2022-10-16T14:31:01;27.70;99.90
15959;DHT22;8078;47.822;9.402;2022-10-16T14:38:32;29.20;99.90
15959;DHT22;8078;47.822;9.402;2022-10-16T14:40:58;29.40;99.90
15959;DHT22;8078;47.822;9.402;2022-10-16T14:46:03;28.90;99.90
15959;DHT22;8078;47.822;9.402;2022-10-16T14:48:29;27.90;99.90
15959;DHT22;8078;47.822;9.402;2022-10-16T14:50:55;27.90;99.90
15959;DHT22;8078;47.822;9.402;2022-10-16T14:53:21;28.00;99.90
15959;DHT22;8078;47.822;9.402;2022-10-16T14:55:46;27.70;99.90
15959;DHT22;8078;47.822;9.402;2022-10-16T14:58:16;27.90;99.90
15959;DHT22;8078;47.822;9.402;2022-10-16T15:00:42;28.20;99.90
15959;DHT22;8078;47.822;9.402;2022-10-16T15:03:08;28.60;99.90
15959;DHT22;8078;47.822;9.402;2022-10-16T15:05:34;28.70;99.90
15959;DHT22;8078;47.822;9.402;2022-10-16T15:07:59;28.60;99.90
15959;DHT22;8078;47.822;9.402;2022-10-16T15:10:27;28.10;99.90
15959;DHT22;8078;47.822;9.402;2022-10-16T15:12:54;27.30;99.90
15959;DHT22;8078;47.822;9.402;2022-10-16T15:17:52;26.60;99.90
15959;DHT22;8078;47.822;9.402;2022-10-16T15:20:21;26.40;99.90
15959;DHT22;8078;47.822;9.402;2022-10-16T15:22:47;26.20;99.90
15959;DHT22;8078;47.822;9.402;2022-10-16T15:27:50;25.80;99.90
15959;DHT22;8078;47.822;9.402;2022-10-16T15:30:15;25.60;99.90
15959;DHT22;8078;47.822;9.402;2022-10-16T15:32:41;25.50;99.90
15959;DHT22;8078;47.822;9.402;2022-10-16T15:35:10;25.50;99.90
15959;DHT22;8078;47.822;9.402;2022-10-16T15:37:36;25.60;99.90
15959;DHT22;8078;47.822;9.402;2022-10-16T15:40:01;25.80;99.90
15959;DHT22;8078;47.822;9.402;2022-10-16T15:42:27;25.80;99.90
15959;DHT22;8078;47.822;9.402;2022-10-16T15:44:53;25.80;99.90
15959;DHT22;8078;47.822;9.402;2022-10-16T15:47:18;25.90;99.90
15959;DHT22;8078;47.822;9.402;2022-10-16T15:49:44;26.10;99.90
15959;DHT22;8078;47.822;9.402;2022-10-16T15:52:11;26.00;99.90
15959;DHT22;8078;47.822;9.402;2022-10-16T15:54:36;25.60;99.90
15959;DHT22;8078;47.822;9.402;2022-10-16T15:57:02;25.00;99.90
15959;DHT22;8078;47.822;9.402;2022-10-16T15:59:27;24.30;99.90
15959;DHT22;8078;47.822;9.402;2022-10-16T16:01:53;23.60;99.90
15959;DHT22;8078;47.822;9.402;2022-10-16T16:04:18;22.90;99.90
15959;DHT22;8078;47.822;9.402;2022-10-16T16:06:44;22.30;99.90
15959;DHT22;8078;47.822;9.402;2022-10-16T16:09:11;21.70;99.90
15959;DHT22;8078;47.822;9.402;2022-10-16T16:11:37;21.20;99.90
15959;DHT22;8078;47.822;9.402;2022-10-16T16:14:07;20.70;99.90
15959;DHT22;8078;47.822;9.402;2022-10-16T16:16:35;20.30;99.90
15959;DHT22;8078;47.822;9.402;2022-10-16T16:19:04;19.90;99.90
15959;DHT22;8078;47.822;9.402;2022-10-16T16:21:30;19.60;99.90
15959;DHT22;8078;47.822;9.402;2022-10-16T16:23:55;19.20;99.90
15959;DHT22;8078;47.822;9.402;2022-10-16T16:26:26;18.90;99.90
15959;DHT22;8078;47.822;9.402;2022-10-16T16:28:55;18.60;99.90
15959;DHT22;8078;47.822;9.402;2022-10-16T16:31:26;18.40;99.90
15959;DHT22;8078;47.822;9.402;2022-10-16T16:33:52;18.10;99.90
15959;DHT22;8078;47.822;9.402;2022-10-16T16:36:18;17.90;99.90
15959;DHT22;8078;47.822;9.402;2022-10-16T16:38:45;17.70;99.90
15959;DHT22;8078;47.822;9.402;2022-10-16T16:41:18;17.50;99.90
15959;DHT22;8078;47.822;9.402;2022-10-16T16:43:45;17.30;99.90
15959;DHT22;8078;47.822;9.402;2022-10-16T16:46:12;17.20;99.90
15959;DHT22;8078;47.822;9.402;2022-10-16T16:48:38;17.10;99.90
15959;DHT22;8078;47.822;9.402;2022-10-16T16:51:10;17.00;99.90
15959;DHT22;8078;47.822;9.402;2022-10-16T16:53:40;16.90;99.90
15959;DHT22;8078;47.822;9.402;2022-10-16T16:56:07;16.80;99.90
15959;DHT22;8078;47.822;9.402;2022-10-16T16:58:33;16.70;99.90
15959;DHT22;8078;47.822;9.402;2022-10-16T17:00:59;16.60;99.90
15959;DHT22;8078;47.822;9.402;2022-10-16T17:03:33;16.60;99.90
15959;DHT22;8078;47.822;9.402;2022-10-16T17:06:02;16.50;99.90
15959;DHT22;8078;47.822;9.402;2022-10-16T17:08:28;16.40;99.90
15959;DHT22;8078;47.822;9.402;2022-10-16T17:10:55;16.30;99.90
15959;DHT22;8078;47.822;9.402;2022-10-16T17:13:24;16.30;99.90
15959;DHT22;8078;47.822;9.402;2022-10-16T17:15:51;16.30;99.90
15959;DHT22;8078;47.822;9.402;2022-10-16T17:18:17;16.20;99.90
15959;DHT22;8078;47.822;9.402;2022-10-16T17:20:43;16.20;99.90
15959;DHT22;8078;47.822;9.402;2022-10-16T17:23:09;16.10;99.90
15959;DHT22;8078;47.822;9.402;2022-10-16T17:25:36;16.10;99.90
15959;DHT22;8078;47.822;9.402;2022-10-16T17:28:02;16.00;99.90
15959;DHT22;8078;47.822;9.402;2022-10-16T17:30:28;16.00;99.90
15959;DHT22;8078;47.822;9.402;2022-10-16T17:32:53;16.00;99.90
15959;DHT22;8078;47.822;9.402;2022-10-16T17:35:19;16.00;99.90
15959;DHT22;8078;47.822;9.402;2022-10-16T17:37:45;15.90;99.90
15959;DHT22;8078;47.822;9.402;2022-10-16T17:40:10;15.90;99.90
15959;DHT22;8078;47.822;9.402;2022-10-16T17:42:36;15.80;99.90
15959;DHT22;8078;47.822;9.402;2022-10-16T17:45:02;15.70;99.90
15959;DHT22;8078;47.822;9.402;2022-10-16T17:47:28;15.70;99.90
15959;DHT22;8078;47.822;9.402;2022-10-16T17:49:54;15.70;99.90
15959;DHT22;8078;47.822;9.402;2022-10-16T17:52:19;15.60;99.90
15959;DHT22;8078;47.822;9.402;2022-10-16T17:54:45;15.70;99.90
15959;DHT22;8078;47.822;9.402;2022-10-16T17:57:11;15.60;99.90
15959;DHT22;8078;47.822;9.402;2022-10-16T17:59:36;15.50;99.90
15959;DHT22;8078;47.822;9.402;2022-10-16T18:02:02;15.50;99.90